createdAt,value
2022-12-27T00:00:11.892Z,144.68
2022-12-27T00:02:43.197Z,152.40
2022-12-27T00:05:14.578Z,163.23
2022-12-27T00:07:44.217Z,155.55
2022-12-27T00:10:18.216Z,158.57
2022-12-27T00:12:49.086Z,158.27
2022-12-27T00:15:17.825Z,143.68
2022-12-27T00:17:52.224Z,185.23
2022-12-27T00:20:22.497Z,172.65
2022-12-27T00:22:50.930Z,168.23
2022-12-27T00:25:19.799Z,172.00
2022-12-27T00:27:49.879Z,146.38
2022-12-27T00:30:18.383Z,123.70
2022-12-27T00:32:46.757Z,117.95
2022-12-27T00:35:16.981Z,105.80
2022-12-27T00:37:45.370Z,105.13
2022-12-27T00:40:14.455Z,94.97
2022-12-27T00:42:43.840Z,93.00
2022-12-27T00:45:17.323Z,89.13
2022-12-27T00:47:46.140Z,91.57
2022-12-27T00:50:15.838Z,89.97
2022-12-27T00:52:44.680Z,82.70
2022-12-27T00:55:13.421Z,82.13
2022-12-27T00:57:42.258Z,83.88
2022-12-27T01:00:14.107Z,77.13
2022-12-27T01:05:12.789Z,85.43
2022-12-27T01:07:41.427Z,86.30
2022-12-27T01:10:10.549Z,84.90
2022-12-27T01:12:39.191Z,86.97
2022-12-27T01:15:10.264Z,91.93
2022-12-27T01:17:40.160Z,82.13
2022-12-27T01:20:10.075Z,89.03
2022-12-27T01:22:40.198Z,90.28
2022-12-27T01:25:09.268Z,85.35
2022-12-27T01:27:37.931Z,86.07
2022-12-27T01:30:08.093Z,81.53
2022-12-27T01:32:37.061Z,86.50
2022-12-27T01:35:13.723Z,94.65
2022-12-27T01:37:43.113Z,89.75
2022-12-27T01:40:12.371Z,90.18
2022-12-27T01:42:56.224Z,89.60
2022-12-27T01:45:26.685Z,86.95
2022-12-27T01:48:01.566Z,89.32
2022-12-27T01:50:39.002Z,87.72
2022-12-27T01:53:14.567Z,89.38
2022-12-27T01:55:46.926Z,84.22
2022-12-27T01:58:19.064Z,79.82
2022-12-27T02:00:50.058Z,75.28
2022-12-27T02:03:23.746Z,83.47
2022-12-27T02:05:55.362Z,80.90
2022-12-27T02:08:35.595Z,78.70
2022-12-27T02:11:05.912Z,80.30
2022-12-27T02:13:37.350Z,83.45
2022-12-27T02:16:14.228Z,92.45
2022-12-27T02:18:43.749Z,91.43
2022-12-27T02:21:48.689Z,99.00
2022-12-27T02:24:35.146Z,99.45
2022-12-27T02:27:09.951Z,95.32
2022-12-27T02:30:07.034Z,87.47
2022-12-27T02:32:40.958Z,83.38
2022-12-27T02:35:15.449Z,87.18
2022-12-27T02:37:49.918Z,79.47
2022-12-27T02:40:50.614Z,82.40
2022-12-27T02:43:36.722Z,80.45
2022-12-27T02:46:31.313Z,81.55
2022-12-27T02:49:18.882Z,85.68
2022-12-27T02:52:19.631Z,78.30
2022-12-27T02:55:08.984Z,81.05
2022-12-27T02:57:43.812Z,81.45
2022-12-27T03:00:33.727Z,79.70
2022-12-27T03:03:32.100Z,76.05
2022-12-27T03:06:37.572Z,79.45
2022-12-27T03:09:36.262Z,77.68
2022-12-27T03:12:22.645Z,72.30
2022-12-27T03:15:14.534Z,70.63
2022-12-27T03:17:55.443Z,73.00
2022-12-27T03:20:46.438Z,79.15
2022-12-27T03:23:33.496Z,75.80
2022-12-27T03:26:08.369Z,75.28
2022-12-27T03:28:55.604Z,73.40
2022-12-27T03:31:46.239Z,71.22
2022-12-27T03:34:41.155Z,70.60
2022-12-27T03:37:31.287Z,73.60
2022-12-27T03:40:07.111Z,67.95
2022-12-27T03:42:59.010Z,74.78
2022-12-27T03:45:47.757Z,73.80
2022-12-27T03:48:24.431Z,78.30
2022-12-27T03:50:57.007Z,73.03
2022-12-27T03:53:38.096Z,77.05
2022-12-27T03:56:10.114Z,76.30
2022-12-27T03:58:38.959Z,71.32
2022-12-27T04:01:07.580Z,72.10
2022-12-27T04:03:36.397Z,77.82
2022-12-27T04:06:05.636Z,78.50
2022-12-27T04:08:55.117Z,69.40
2022-12-27T04:11:41.933Z,73.93
2022-12-27T04:14:28.106Z,76.93
2022-12-27T04:17:14.013Z,74.50
2022-12-27T04:20:00.387Z,84.50
2022-12-27T04:22:51.365Z,78.07
2022-12-27T04:25:38.493Z,78.05
2022-12-27T04:28:24.380Z,78.13
2022-12-27T04:31:10.927Z,80.22
2022-12-27T04:33:57.085Z,92.30
2022-12-27T04:36:25.575Z,87.63
2022-12-27T04:38:55.963Z,88.00
2022-12-27T04:41:49.954Z,82.35
2022-12-27T04:44:35.539Z,78.50
2022-12-27T04:47:21.785Z,94.78
2022-12-27T04:50:11.675Z,81.65
2022-12-27T04:52:57.989Z,91.70
2022-12-27T04:55:28.813Z,96.13
2022-12-27T04:57:59.553Z,86.82
2022-12-27T05:00:48.897Z,79.97
2022-12-27T05:03:23.581Z,79.32
2022-12-27T05:05:53.791Z,89.55
2022-12-27T05:08:40.285Z,96.00
2022-12-27T05:11:40.744Z,90.75
2022-12-27T05:14:13.375Z,86.88
2022-12-27T05:16:43.250Z,90.95
2022-12-27T05:19:14.497Z,84.65
2022-12-27T05:22:04.789Z,84.00
2022-12-27T05:24:51.287Z,83.07
2022-12-27T05:27:22.583Z,74.80
2022-12-27T05:29:52.536Z,103.88
2022-12-27T05:32:21.096Z,84.50
2022-12-27T05:34:49.355Z,65.78
2022-12-27T05:37:19.971Z,63.97
2022-12-27T05:39:48.790Z,69.47
2022-12-27T05:42:17.297Z,56.63
2022-12-27T05:44:45.788Z,45.70
2022-12-27T05:47:15.789Z,38.28
2022-12-27T05:49:46.303Z,33.72
2022-12-27T05:52:14.774Z,27.48
2022-12-27T05:54:43.272Z,27.63
2022-12-27T05:57:15.685Z,25.23
2022-12-27T05:59:44.227Z,23.58
2022-12-27T06:02:12.818Z,21.58
2022-12-27T06:04:44.300Z,20.20
2022-12-27T06:07:13.811Z,22.27
2022-12-27T06:09:43.095Z,18.02
2022-12-27T06:12:15.345Z,15.90
2022-12-27T06:14:43.691Z,14.80
2022-12-27T06:17:12.246Z,13.13
2022-12-27T06:19:42.806Z,11.30
2022-12-27T06:22:11.007Z,10.90
2022-12-27T06:24:39.290Z,10.45
2022-12-27T06:27:08.141Z,9.27
2022-12-27T06:29:39.125Z,10.73
2022-12-27T06:32:13.551Z,8.90
2022-12-27T06:34:43.503Z,9.38
2022-12-27T06:37:13.601Z,9.85
2022-12-27T06:39:45.943Z,8.90
2022-12-27T06:42:14.302Z,10.02
2022-12-27T06:44:43.047Z,9.32
2022-12-27T06:47:11.708Z,9.88
2022-12-27T06:49:41.360Z,10.95
2022-12-27T06:52:11.168Z,9.25
2022-12-27T06:54:43.192Z,8.50
2022-12-27T06:57:11.539Z,7.70
2022-12-27T06:59:41.021Z,8.07
2022-12-27T07:02:11.669Z,8.48
2022-12-27T07:04:40.275Z,8.93
2022-12-27T07:07:15.396Z,10.38
2022-12-27T07:09:44.789Z,8.18
2022-12-27T07:12:13.029Z,9.40
2022-12-27T07:14:41.513Z,9.00
2022-12-27T07:17:09.876Z,9.10
2022-12-27T07:19:38.732Z,7.22
2022-12-27T07:22:07.268Z,6.10
2022-12-27T07:24:36.867Z,7.68
2022-12-27T07:27:06.498Z,8.38
2022-12-27T07:29:37.091Z,6.22
2022-12-27T07:32:11.305Z,6.68
2022-12-27T07:34:41.468Z,7.18
2022-12-27T07:37:11.032Z,7.63
2022-12-27T07:39:41.135Z,6.30
2022-12-27T07:42:09.899Z,6.15
2022-12-27T07:44:38.176Z,5.65
2022-12-27T07:47:07.172Z,7.30
2022-12-27T07:49:35.812Z,7.72
2022-12-27T07:52:04.355Z,6.80
2022-12-27T07:54:33.644Z,6.05
2022-12-27T07:57:03.721Z,5.13
2022-12-27T07:59:33.653Z,5.53
2022-12-27T08:02:08.300Z,6.43
2022-12-27T08:04:42.839Z,7.38
2022-12-27T08:07:16.259Z,4.63
2022-12-27T08:09:46.438Z,5.70
2022-12-27T08:12:19.093Z,5.93
2022-12-27T08:14:48.034Z,6.07
2022-12-27T08:17:20.314Z,8.63
2022-12-27T08:19:49.520Z,7.25
2022-12-27T08:22:18.419Z,4.38
2022-12-27T08:24:46.854Z,5.93
2022-12-27T08:27:23.534Z,6.80
2022-12-27T08:29:52.185Z,6.47
2022-12-27T08:32:22.062Z,5.22
2022-12-27T08:34:50.568Z,5.85
2022-12-27T08:37:19.053Z,4.82
2022-12-27T08:39:47.553Z,7.10
2022-12-27T08:42:16.165Z,5.05
2022-12-27T08:44:46.156Z,5.70
2022-12-27T08:47:14.954Z,5.80
2022-12-27T08:49:43.736Z,6.25
2022-12-27T08:52:12.363Z,3.85
2022-12-27T08:54:44.164Z,4.80
2022-12-27T08:57:12.712Z,6.20
2022-12-27T08:59:41.023Z,7.63
2022-12-27T09:02:14.536Z,4.13
2022-12-27T09:04:42.949Z,3.90
2022-12-27T09:07:11.455Z,3.88
2022-12-27T09:09:40.124Z,4.60
2022-12-27T09:12:09.627Z,4.32
2022-12-27T09:14:38.246Z,3.97
2022-12-27T09:17:09.515Z,4.40
2022-12-27T09:19:39.556Z,3.88
2022-12-27T09:22:08.273Z,5.32
2022-12-27T09:24:37.179Z,4.68
2022-12-27T09:27:05.841Z,3.95
2022-12-27T09:29:34.280Z,3.50
2022-12-27T09:32:02.731Z,3.35
2022-12-27T09:34:33.168Z,3.25
2022-12-27T09:37:06.849Z,3.60
2022-12-27T09:39:35.883Z,5.90
2022-12-27T09:45:08.865Z,3.50
2022-12-27T09:47:49.552Z,6.30
2022-12-27T09:50:21.423Z,4.30
2022-12-27T09:52:58.544Z,3.38
2022-12-27T09:55:37.728Z,4.60
2022-12-27T09:58:24.155Z,4.43
2022-12-27T10:00:55.962Z,3.97
2022-12-27T10:03:28.039Z,4.47
2022-12-27T10:06:03.134Z,2.53
2022-12-27T10:08:44.125Z,3.28
2022-12-27T10:11:35.096Z,4.50
2022-12-27T10:14:17.174Z,5.30
2022-12-27T10:16:54.825Z,4.30
2022-12-27T10:19:32.854Z,5.50
2022-12-27T10:22:14.887Z,4.05
2022-12-27T10:24:49.107Z,4.53
2022-12-27T10:27:22.434Z,3.47
2022-12-27T10:29:53.942Z,6.25
2022-12-27T10:32:22.564Z,6.38
2022-12-27T10:34:55.983Z,5.20
2022-12-27T10:37:24.603Z,4.03
2022-12-27T10:39:54.552Z,4.45
2022-12-27T10:42:35.237Z,4.18
2022-12-27T10:45:29.870Z,4.60
2022-12-27T10:48:00.856Z,3.97
2022-12-27T10:50:31.643Z,3.78
2022-12-27T10:53:01.225Z,6.15
2022-12-27T10:55:40.293Z,6.97
2022-12-27T10:58:22.635Z,4.38
2022-12-27T11:00:57.359Z,5.63
2022-12-27T11:03:28.339Z,6.53
2022-12-27T11:06:05.742Z,5.90
2022-12-27T11:08:36.047Z,5.03
2022-12-27T11:11:20.503Z,8.63
2022-12-27T11:13:51.697Z,6.75
2022-12-27T11:16:29.870Z,6.10
2022-12-27T11:19:00.459Z,6.20
2022-12-27T11:21:30.427Z,4.13
2022-12-27T11:24:06.088Z,7.72
2022-12-27T11:26:53.938Z,6.47
2022-12-27T11:29:25.093Z,4.88
2022-12-27T11:31:54.762Z,4.78
2022-12-27T11:34:34.234Z,6.93
2022-12-27T11:37:06.519Z,6.07
2022-12-27T11:39:40.208Z,6.13
2022-12-27T11:42:17.923Z,5.63
2022-12-27T11:44:54.945Z,6.60
2022-12-27T11:47:33.294Z,5.45
2022-12-27T11:50:14.970Z,7.28
2022-12-27T11:53:03.081Z,5.65
2022-12-27T11:56:16.171Z,7.07
2022-12-27T11:59:26.688Z,7.47
2022-12-27T12:02:36.482Z,5.78
2022-12-27T12:05:40.297Z,5.57
2022-12-27T12:08:48.376Z,5.47
2022-12-27T12:11:29.541Z,5.55
2022-12-27T12:14:22.434Z,5.57
2022-12-27T12:17:08.924Z,6.75
2022-12-27T12:20:08.646Z,11.27
2022-12-27T12:22:46.764Z,5.82
2022-12-27T12:25:49.978Z,4.43
2022-12-27T12:28:58.266Z,6.20
2022-12-27T12:31:43.600Z,5.55
2022-12-27T12:34:29.379Z,4.47
2022-12-27T12:37:18.613Z,5.80
2022-12-27T12:40:05.481Z,5.40
2022-12-27T12:42:41.819Z,7.53
2022-12-27T12:45:40.747Z,5.95
2022-12-27T12:48:43.484Z,6.78
2022-12-27T12:51:27.671Z,5.60
2022-12-27T12:54:08.961Z,7.47
2022-12-27T12:57:05.932Z,6.88
2022-12-27T13:00:00.569Z,5.57
2022-12-27T13:03:01.422Z,5.55
2022-12-27T13:05:38.656Z,4.00
2022-12-27T13:08:14.718Z,5.65
2022-12-27T13:11:07.298Z,6.40
2022-12-27T13:13:49.375Z,6.65
2022-12-27T13:16:29.485Z,5.50
2022-12-27T13:19:14.021Z,5.65
2022-12-27T13:21:59.310Z,6.60
2022-12-27T13:24:42.581Z,4.93
2022-12-27T13:27:19.753Z,6.75
2022-12-27T13:30:03.012Z,6.65
2022-12-27T13:32:45.610Z,6.95
2022-12-27T13:35:28.449Z,6.78
2022-12-27T13:38:14.199Z,10.93
2022-12-27T13:41:07.045Z,11.40
2022-12-27T13:43:53.655Z,8.25
2022-12-27T13:46:42.296Z,11.93
2022-12-27T13:49:41.775Z,6.95
2022-12-27T13:52:20.244Z,6.60
2022-12-27T13:55:09.372Z,6.43
2022-12-27T13:58:05.981Z,6.45
2022-12-27T14:00:38.785Z,7.47
2022-12-27T14:03:47.766Z,6.43
2022-12-27T14:06:36.183Z,7.97
2022-12-27T14:09:25.291Z,8.98
2022-12-27T14:12:18.738Z,8.77
2022-12-27T14:14:48.537Z,7.25
2022-12-27T14:17:29.758Z,6.85
2022-12-27T14:20:18.695Z,7.07
2022-12-27T14:23:32.764Z,7.25
2022-12-27T14:26:38.348Z,5.93
2022-12-27T14:29:48.677Z,7.50
2022-12-27T14:32:58.507Z,6.80
2022-12-27T14:35:59.455Z,9.30
2022-12-27T14:38:55.200Z,9.35
2022-12-27T14:41:56.818Z,10.35
2022-12-27T14:44:49.225Z,18.65
2022-12-27T14:47:48.013Z,9.40
2022-12-27T14:51:08.140Z,8.88
2022-12-27T14:54:03.311Z,8.02
2022-12-27T14:56:34.930Z,8.65
2022-12-27T14:59:19.150Z,7.32
2022-12-27T15:02:00.623Z,8.35
2022-12-27T15:04:44.194Z,9.75
2022-12-27T15:07:27.190Z,10.05
2022-12-27T15:10:05.267Z,7.40
2022-12-27T15:12:45.056Z,9.10
2022-12-27T15:15:32.918Z,8.85
2022-12-27T15:18:15.181Z,8.20
2022-12-27T15:23:35.351Z,8.23
2022-12-27T15:26:19.328Z,10.68
2022-12-27T15:28:58.228Z,7.88
2022-12-27T15:31:36.606Z,9.63
2022-12-27T15:34:22.197Z,9.13
2022-12-27T15:36:52.283Z,7.57
2022-12-27T15:39:47.620Z,8.77
2022-12-27T15:42:48.175Z,8.00
2022-12-27T15:45:31.447Z,8.80
2022-12-27T15:48:25.263Z,10.07
2022-12-27T15:51:05.024Z,9.32
2022-12-27T15:54:11.875Z,10.20
2022-12-27T15:57:03.211Z,9.68
2022-12-27T15:59:46.658Z,13.55
2022-12-27T16:02:33.259Z,11.63
2022-12-27T16:05:13.840Z,12.35
2022-12-27T16:07:47.966Z,11.45
2022-12-27T16:10:50.634Z,15.13
2022-12-27T16:13:37.646Z,10.38
2022-12-27T16:16:28.275Z,9.90
2022-12-27T16:19:15.667Z,8.30
2022-12-27T16:21:46.710Z,10.38
2022-12-27T16:24:19.688Z,9.27
2022-12-27T16:26:55.962Z,13.23
2022-12-27T16:29:28.971Z,22.42
2022-12-27T16:32:21.981Z,22.15
2022-12-27T16:34:55.116Z,12.63
2022-12-27T16:37:30.116Z,10.63
2022-12-27T16:40:26.353Z,8.38
2022-12-27T16:43:31.896Z,9.25
2022-12-27T16:46:22.134Z,7.95
2022-12-27T16:49:26.803Z,7.82
2022-12-27T16:52:07.964Z,8.65
2022-12-27T16:54:52.550Z,7.80
2022-12-27T16:57:43.127Z,8.27
2022-12-27T17:00:37.821Z,8.73
2022-12-27T17:03:29.564Z,9.35
2022-12-27T17:06:32.104Z,8.80
2022-12-27T17:09:31.070Z,12.07
2022-12-27T17:12:11.382Z,10.70
2022-12-27T17:14:41.854Z,9.98
2022-12-27T17:17:18.672Z,10.32
2022-12-27T17:19:55.458Z,9.25
2022-12-27T17:22:32.286Z,9.73
2022-12-27T17:25:04.281Z,11.02
2022-12-27T17:28:05.546Z,9.57
2022-12-27T17:30:48.593Z,10.60
2022-12-27T17:33:40.207Z,9.23
2022-12-27T17:36:37.888Z,8.80
2022-12-27T17:39:24.506Z,9.60
2022-12-27T17:42:17.911Z,8.80
2022-12-27T17:45:03.885Z,9.15
2022-12-27T17:47:47.710Z,9.68
2022-12-27T17:50:21.056Z,10.05
2022-12-27T17:53:33.485Z,8.88
2022-12-27T17:56:35.559Z,10.10
2022-12-27T17:59:12.111Z,11.63
2022-12-27T18:01:45.992Z,11.07
2022-12-27T18:04:24.904Z,10.32
2022-12-27T18:06:57.835Z,10.38
2022-12-27T18:09:48.576Z,13.13
2022-12-27T18:12:25.131Z,9.07
2022-12-27T18:15:04.133Z,10.25
2022-12-27T18:17:37.057Z,11.45
2022-12-27T18:20:28.995Z,10.82
2022-12-27T18:23:19.060Z,10.63
2022-12-27T18:25:57.815Z,10.43
2022-12-27T18:28:33.337Z,12.88
2022-12-27T18:31:10.071Z,12.88
2022-12-27T18:33:43.391Z,12.07
2022-12-27T18:36:16.094Z,15.32
2022-12-27T18:38:48.432Z,16.00
2022-12-27T18:41:22.344Z,18.98
2022-12-27T18:43:59.852Z,21.95
2022-12-27T18:46:31.686Z,17.08
2022-12-27T18:51:34.686Z,16.25
2022-12-27T18:54:03.419Z,26.13
2022-12-27T18:56:34.414Z,26.15
2022-12-27T18:59:07.298Z,18.80
2022-12-27T19:01:42.122Z,23.85
2022-12-27T19:04:23.098Z,37.80
2022-12-27T19:06:59.306Z,15.57
2022-12-27T19:09:30.020Z,16.60
2022-12-27T19:12:01.163Z,19.05
2022-12-27T19:14:38.643Z,22.30
2022-12-27T19:17:11.254Z,22.73
2022-12-27T19:19:42.040Z,17.77
2022-12-27T19:22:33.997Z,15.90
2022-12-27T19:25:04.924Z,24.60
2022-12-27T19:27:33.313Z,25.00
2022-12-27T19:30:03.239Z,25.85
2022-12-27T19:32:34.686Z,29.70
2022-12-27T19:35:06.336Z,41.90
2022-12-27T19:37:35.687Z,38.65
2022-12-27T19:40:06.001Z,32.85
2022-12-27T19:42:36.190Z,24.23
2022-12-27T19:45:07.327Z,24.70
2022-12-27T19:47:40.103Z,23.17
2022-12-27T19:50:10.850Z,46.63
2022-12-27T19:52:40.384Z,65.85
2022-12-27T19:55:13.223Z,61.50
2022-12-27T19:57:42.068Z,55.85
2022-12-27T20:00:17.735Z,90.60
2022-12-27T20:02:47.200Z,79.07
2022-12-27T20:05:16.512Z,76.97
2022-12-27T20:07:45.046Z,99.60
2022-12-27T20:10:16.248Z,118.25
2022-12-27T20:12:44.848Z,91.87
2022-12-27T20:15:15.097Z,58.45
2022-12-27T20:17:45.139Z,45.45
2022-12-27T20:20:14.029Z,41.13
2022-12-27T20:22:42.427Z,32.53
2022-12-27T20:25:11.740Z,29.45
2022-12-27T20:27:40.289Z,25.00
2022-12-27T20:30:10.422Z,31.75
2022-12-27T20:32:40.786Z,33.20
2022-12-27T20:35:09.902Z,49.38
2022-12-27T20:37:39.343Z,72.22
2022-12-27T20:40:12.048Z,97.40
2022-12-27T20:42:41.286Z,85.28
2022-12-27T20:45:10.404Z,75.60
2022-12-27T20:47:43.370Z,83.22
2022-12-27T20:50:17.470Z,85.22
2022-12-27T20:52:46.054Z,75.35
2022-12-27T20:55:15.031Z,72.00
2022-12-27T20:57:43.653Z,62.70
2022-12-27T21:00:14.860Z,56.53
2022-12-27T21:02:47.816Z,64.65
2022-12-27T21:05:17.728Z,60.20
2022-12-27T21:07:46.581Z,79.63
2022-12-27T21:10:15.308Z,87.18
2022-12-27T21:12:44.034Z,82.72
2022-12-27T21:15:12.441Z,72.78
2022-12-27T21:17:41.005Z,72.40
2022-12-27T21:20:13.541Z,65.00
2022-12-27T21:22:41.817Z,67.63
2022-12-27T21:25:10.849Z,64.75
2022-12-27T21:27:41.187Z,64.70
2022-12-27T21:30:15.227Z,68.15
2022-12-27T21:32:43.830Z,62.20
2022-12-27T21:35:13.778Z,60.53
2022-12-27T21:37:41.928Z,59.70
2022-12-27T21:40:12.314Z,52.90
2022-12-27T21:42:40.839Z,62.83
2022-12-27T21:45:11.344Z,54.05
2022-12-27T21:47:39.730Z,66.57
2022-12-27T21:50:08.314Z,59.83
2022-12-27T21:52:37.905Z,63.10
2022-12-27T21:55:06.719Z,61.75
2022-12-27T21:57:35.583Z,60.22
2022-12-27T22:00:04.427Z,60.95
2022-12-27T22:02:33.158Z,55.25
2022-12-27T22:05:01.628Z,52.65
2022-12-27T22:07:30.295Z,52.80
2022-12-27T22:10:00.398Z,53.70
2022-12-27T22:12:29.174Z,50.50
2022-12-27T22:14:58.223Z,58.50
2022-12-27T22:17:26.498Z,56.28
2022-12-27T22:19:56.053Z,54.15
2022-12-27T22:22:25.978Z,54.55
2022-12-27T22:24:54.107Z,57.63
2022-12-27T22:27:24.192Z,57.55
2022-12-27T22:29:55.159Z,53.70
2022-12-27T22:32:23.660Z,57.70
2022-12-27T22:34:52.042Z,57.63
2022-12-27T22:37:20.311Z,53.80
2022-12-27T22:39:49.241Z,54.30
2022-12-27T22:42:18.272Z,52.30
2022-12-27T22:44:48.130Z,48.78
2022-12-27T22:47:26.375Z,51.70
2022-12-27T22:49:55.204Z,48.75
2022-12-27T22:52:24.334Z,45.42
2022-12-27T22:55:04.479Z,42.13
2022-12-27T22:57:34.998Z,42.60
2022-12-27T23:00:07.607Z,43.17
2022-12-27T23:02:37.892Z,46.28
2022-12-27T23:05:07.185Z,46.72
2022-12-27T23:08:04.286Z,45.22
2022-12-27T23:10:24.088Z,49.05
2022-12-27T23:12:52.831Z,55.38
2022-12-27T23:15:26.637Z,57.67
2022-12-27T23:17:55.353Z,56.83
2022-12-27T23:20:25.026Z,61.83
2022-12-27T23:22:54.181Z,62.00
2022-12-27T23:25:22.597Z,63.78
2022-12-27T23:27:50.846Z,69.53
2022-12-27T23:30:20.086Z,65.78
2022-12-27T23:32:49.825Z,65.60
2022-12-27T23:35:19.425Z,66.90
2022-12-27T23:37:47.635Z,59.67
2022-12-27T23:40:16.412Z,52.60
2022-12-27T23:42:44.867Z,49.72
2022-12-27T23:45:16.256Z,46.20
2022-12-27T23:47:45.098Z,48.95
2022-12-27T23:50:20.763Z,51.35
2022-12-27T23:52:50.136Z,49.22
2022-12-27T23:55:19.545Z,58.30
2022-12-27T23:57:48.535Z,55.20
